DAL2877 KDEN-KMSP
Flight info
| Callsign | DAL2877 |
|---|---|
| Flight time | N/A |
| Altitude | 35000 |
| Route | CHUWY1 CHUWY KD75A SSWAN TORGY3 |
| Aircraft | A321/M-SDE3FGHIRWY/LB1 |
Departure
| Time | 2026-05-04 23:36 |
|---|---|
| Airport | Denver International Airport (KDEN) |
Arrival
| Time | N/A |
|---|---|
| Airport | Minneapolis–Saint Paul International Airport / Wold–Chamberlain Field (KMSP) |
| Time | Latitude | Longitude | Altitude | Speed | Heading |
|---|---|---|---|---|---|
| 2026-05-04 22:53 | 39.85338 | -104.67054 | 5384 ft | 0 kts | 1° |
| 2026-05-04 23:00 | 39.85804 | -104.67085 | 5387 ft | 0 kts | 0° |
| 2026-05-04 23:17 | 39.85787 | -104.67085 | 5388 ft | 0 kts | 0° |
| 2026-05-04 23:17 | 39.85807 | -104.67085 | 5388 ft | 0 kts | 0° |
| 2026-05-04 23:17 | 39.85804 | -104.67085 | 5388 ft | 0 kts | 0° |
| 2026-05-04 23:22 | 39.85803 | -104.67085 | 5386 ft | 1 kts | 0° |
| 2026-05-04 23:22 | 39.85780 | -104.67083 | 5386 ft | 4 kts | 345° |
| 2026-05-04 23:22 | 39.85756 | -104.67072 | 5385 ft | 4 kts | 333° |
| 2026-05-04 23:23 | 39.85737 | -104.67053 | 5384 ft | 4 kts | 298° |
| 2026-05-04 23:23 | 39.85730 | -104.67022 | 5384 ft | 3 kts | 272° |
| 2026-05-04 23:23 | 39.85729 | -104.67013 | 5381 ft | 0 kts | 271° |
| 2026-05-04 23:27 | 39.85730 | -104.67043 | 5386 ft | 9 kts | 271° |
| 2026-05-04 23:27 | 39.85731 | -104.67158 | 5386 ft | 16 kts | 270° |
| 2026-05-04 23:27 | 39.85731 | -104.67292 | 5386 ft | 14 kts | 270° |
| 2026-05-04 23:27 | 39.85732 | -104.67412 | 5386 ft | 12 kts | 271° |
| 2026-05-04 23:28 | 39.85733 | -104.67526 | 5386 ft | 14 kts | 270° |
| 2026-05-04 23:28 | 39.85733 | -104.67646 | 5386 ft | 12 kts | 270° |
| 2026-05-04 23:28 | 39.85734 | -104.67756 | 5386 ft | 13 kts | 270° |
| 2026-05-04 23:28 | 39.85735 | -104.67899 | 5386 ft | 19 kts | 270° |
| 2026-05-04 23:29 | 39.85737 | -104.68070 | 5386 ft | 18 kts | 271° |
| 2026-05-04 23:29 | 39.85723 | -104.68218 | 5386 ft | 15 kts | 224° |
| 2026-05-04 23:29 | 39.85686 | -104.68332 | 5375 ft | 16 kts | 273° |
| 2026-05-04 23:29 | 39.85683 | -104.68484 | 5369 ft | 14 kts | 255° |
| 2026-05-04 23:30 | 39.85616 | -104.68519 | 5371 ft | 9 kts | 181° |
| 2026-05-04 23:30 | 39.85562 | -104.68518 | 5371 ft | 6 kts | 179° |
| 2026-05-04 23:30 | 39.85529 | -104.68518 | 5371 ft | 4 kts | 179° |
| 2026-05-04 23:30 | 39.85514 | -104.68517 | 5374 ft | 2 kts | 179° |
| 2026-05-04 23:31 | 39.85436 | -104.68518 | 5372 ft | 23 kts | 181° |
| 2026-05-04 23:31 | 39.85265 | -104.68523 | 5370 ft | 23 kts | 181° |
| 2026-05-04 23:31 | 39.85206 | -104.68609 | 5368 ft | 14 kts | 262° |
| 2026-05-04 23:31 | 39.85202 | -104.68754 | 5362 ft | 21 kts | 271° |
| 2026-05-04 23:32 | 39.85203 | -104.69012 | 5353 ft | 34 kts | 265° |
| 2026-05-04 23:32 | 39.85199 | -104.69293 | 5342 ft | 26 kts | 272° |
| 2026-05-04 23:32 | 39.85205 | -104.69491 | 5335 ft | 6 kts | 268° |
| 2026-05-04 23:32 | 39.85205 | -104.69498 | 5334 ft | 0 kts | 268° |
| 2026-05-04 23:34 | 39.85205 | -104.69499 | 5334 ft | 0 kts | 268° |
| 2026-05-04 23:34 | 39.85202 | -104.69585 | 5335 ft | 21 kts | 268° |
| 2026-05-04 23:34 | 39.85211 | -104.69683 | 5337 ft | 3 kts | 346° |
| 2026-05-04 23:35 | 39.85235 | -104.69681 | 5334 ft | 7 kts | 4° |
| 2026-05-04 23:35 | 39.85410 | -104.69663 | 5337 ft | 54 kts | 4° |
| 2026-05-04 23:35 | 39.85973 | -104.69651 | 5340 ft | 108 kts | 0° |
| 2026-05-04 23:35 | 39.86887 | -104.69643 | 5339 ft | 152 kts | 0° |
| 2026-05-04 23:36 | 39.88065 | -104.69631 | 5336 ft | 185 kts | 359° |
| 2026-05-04 23:36 | 39.89345 | -104.69606 | 5968 ft | 177 kts | 1° |
| 2026-05-04 23:36 | 39.90574 | -104.69567 | 6538 ft | 181 kts | 1° |
| 2026-05-04 23:36 | 39.90627 | -104.69565 | 6543 ft | 181 kts | 1° |
| 2026-05-04 23:37 | 39.90870 | -104.69558 | 6642 ft | 181 kts | 0° |
| 2026-05-04 23:37 | 39.92130 | -104.69555 | 7109 ft | 179 kts | 360° |
| 2026-05-04 23:37 | 39.93386 | -104.69557 | 7323 ft | 191 kts | 0° |
| 2026-05-04 23:38 | 39.94776 | -104.69522 | 7452 ft | 209 kts | 1° |
| 2026-05-04 23:38 | 39.96279 | -104.69475 | 7580 ft | 223 kts | 1° |
| 2026-05-04 23:38 | 39.97884 | -104.69425 | 7693 ft | 238 kts | 1° |
| 2026-05-04 23:38 | 39.99608 | -104.69378 | 7807 ft | 257 kts | 1° |
| 2026-05-04 23:39 | 40.01441 | -104.69334 | 8070 ft | 272 kts | 1° |
| 2026-05-04 23:39 | 40.03381 | -104.69202 | 8466 ft | 284 kts | 12° |
| 2026-05-04 23:39 | 40.05199 | -104.68176 | 9074 ft | 288 kts | 32° |
| 2026-05-04 23:39 | 40.06901 | -104.66764 | 9761 ft | 291 kts | 33° |
| 2026-05-04 23:40 | 40.08584 | -104.65342 | 10326 ft | 294 kts | 33° |
| 2026-05-04 23:40 | 40.10344 | -104.63852 | 10637 ft | 312 kts | 33° |
| 2026-05-04 23:40 | 40.12226 | -104.62259 | 10772 ft | 333 kts | 33° |
| 2026-05-04 23:40 | 40.14217 | -104.60575 | 11108 ft | 346 kts | 33° |
| 2026-05-04 23:41 | 40.16252 | -104.58859 | 11681 ft | 351 kts | 32° |
| 2026-05-04 23:41 | 40.18318 | -104.57119 | 12286 ft | 355 kts | 32° |
| 2026-05-04 23:41 | 40.20407 | -104.55356 | 12893 ft | 359 kts | 32° |
| 2026-05-04 23:41 | 40.22522 | -104.53572 | 13462 ft | 365 kts | 32° |
| 2026-05-04 23:42 | 40.24667 | -104.51762 | 14006 ft | 369 kts | 32° |
| 2026-05-04 23:42 | 40.26810 | -104.49956 | 14507 ft | 374 kts | 32° |
| 2026-05-04 23:42 | 40.29007 | -104.48107 | 15044 ft | 378 kts | 32° |
| 2026-05-04 23:42 | 40.31225 | -104.46236 | 15600 ft | 381 kts | 31° |
| 2026-05-04 23:43 | 40.33461 | -104.44347 | 16150 ft | 384 kts | 31° |
| 2026-05-04 23:43 | 40.35714 | -104.42442 | 16705 ft | 387 kts | 31° |
| 2026-05-04 23:43 | 40.37983 | -104.40520 | 17274 ft | 390 kts | 31° |
| 2026-05-04 23:43 | 40.40269 | -104.38580 | 17829 ft | 393 kts | 31° |
| 2026-05-04 23:44 | 40.42572 | -104.36623 | 18329 ft | 396 kts | 31° |
| 2026-05-04 23:44 | 40.44864 | -104.34673 | 18764 ft | 399 kts | 31° |
| 2026-05-04 23:44 | 40.47201 | -104.32683 | 19219 ft | 402 kts | 30° |
| 2026-05-04 23:44 | 40.49562 | -104.30673 | 19619 ft | 406 kts | 30° |
| 2026-05-04 23:45 | 40.51942 | -104.28648 | 20043 ft | 410 kts | 30° |
| 2026-05-04 23:45 | 40.54345 | -104.26603 | 20480 ft | 413 kts | 30° |
| 2026-05-04 23:45 | 40.56753 | -104.24516 | 20931 ft | 417 kts | 33° |
| 2026-05-04 23:45 | 40.58243 | -104.22906 | 21208 ft | 422 kts | 41° |